createdAt,value
2017-12-31T00:02:21.119Z,0.90
2017-12-31T00:04:48.987Z,1.13
2017-12-31T00:07:16.844Z,1.10
2017-12-31T00:09:44.716Z,1.20
2017-12-31T00:12:12.696Z,3.63
2017-12-31T00:14:40.671Z,2.50
2017-12-31T00:17:08.562Z,3.03
2017-12-31T00:19:36.354Z,1.10
2017-12-31T00:22:04.149Z,1.80
2017-12-31T00:24:32.936Z,1.97
2017-12-31T00:27:00.730Z,2.03
2017-12-31T00:29:29.407Z,1.20
2017-12-31T00:31:58.257Z,2.00
2017-12-31T00:34:26.225Z,1.30
2017-12-31T00:36:54.426Z,3.30
2017-12-31T00:39:23.801Z,3.20
2017-12-31T00:41:51.801Z,1.20
2017-12-31T00:44:19.753Z,1.33
2017-12-31T00:46:47.608Z,2.27
2017-12-31T00:49:15.510Z,4.40
2017-12-31T00:51:43.454Z,6.03
2017-12-31T00:54:11.323Z,5.33
2017-12-31T00:56:39.206Z,5.17
2017-12-31T00:59:07.061Z,3.63
2017-12-31T01:01:34.938Z,3.67
2017-12-31T01:04:02.790Z,4.83
2017-12-31T01:06:30.637Z,4.20
2017-12-31T01:08:58.510Z,5.53
2017-12-31T01:11:26.390Z,4.33
2017-12-31T01:13:54.338Z,2.70
2017-12-31T01:16:22.207Z,4.33
2017-12-31T01:18:50.002Z,3.87
2017-12-31T01:21:18.040Z,2.50
2017-12-31T01:23:46.048Z,2.30
2017-12-31T01:26:15.081Z,3.07
2017-12-31T01:28:43.894Z,4.77
2017-12-31T01:31:11.861Z,2.70
2017-12-31T01:33:39.768Z,2.00
2017-12-31T01:36:08.414Z,2.17
2017-12-31T01:38:36.279Z,2.30
2017-12-31T01:41:04.245Z,3.43
2017-12-31T01:43:32.115Z,4.60
2017-12-31T01:46:00.010Z,2.40
2017-12-31T01:48:27.766Z,6.10
2017-12-31T01:50:55.665Z,3.63
2017-12-31T01:53:24.218Z,2.30
2017-12-31T01:55:52.073Z,2.93
2017-12-31T01:58:20.121Z,3.70
2017-12-31T02:00:47.926Z,1.27
2017-12-31T02:03:15.776Z,2.77
2017-12-31T02:05:43.658Z,4.37
2017-12-31T02:08:11.512Z,4.30
2017-12-31T02:10:40.388Z,4.70
2017-12-31T02:13:08.174Z,2.77
2017-12-31T02:15:36.055Z,3.73
2017-12-31T02:18:03.952Z,4.53
2017-12-31T02:20:31.869Z,1.50
2017-12-31T02:22:59.822Z,4.13
2017-12-31T02:25:27.708Z,3.97
2017-12-31T02:27:55.864Z,3.20
2017-12-31T02:30:24.036Z,6.20
2017-12-31T02:32:52.153Z,3.83
2017-12-31T02:35:20.808Z,9.30
2017-12-31T02:37:48.765Z,3.80
2017-12-31T02:40:16.877Z,3.60
2017-12-31T02:42:44.725Z,3.50
2017-12-31T02:45:12.492Z,2.30
2017-12-31T02:47:41.390Z,4.90
2017-12-31T02:50:09.323Z,6.53
2017-12-31T02:52:37.224Z,2.50
2017-12-31T02:55:05.097Z,2.10
2017-12-31T02:57:33.125Z,4.13
2017-12-31T03:00:01.032Z,3.20
2017-12-31T03:02:28.810Z,4.40
2017-12-31T03:04:57.546Z,8.07
2017-12-31T03:07:25.447Z,1.93
2017-12-31T03:09:53.320Z,1.03
2017-12-31T03:12:21.255Z,2.13
2017-12-31T03:14:49.260Z,4.00
2017-12-31T03:17:17.286Z,1.50
2017-12-31T03:19:45.153Z,1.13
2017-12-31T03:22:13.017Z,3.33
2017-12-31T03:24:40.776Z,4.30
2017-12-31T03:27:08.643Z,4.40
2017-12-31T03:29:36.638Z,2.50
2017-12-31T03:32:04.644Z,1.03
2017-12-31T03:34:33.394Z,1.10
2017-12-31T03:37:01.346Z,3.07
2017-12-31T03:39:29.317Z,2.47
2017-12-31T03:41:57.389Z,4.93
2017-12-31T03:44:25.248Z,1.07
2017-12-31T03:46:53.020Z,3.60
2017-12-31T03:49:20.905Z,2.30
2017-12-31T03:51:48.913Z,7.87
2017-12-31T03:54:17.766Z,76.63
2017-12-31T03:56:45.729Z,50.57
2017-12-31T03:59:13.722Z,58.23
2017-12-31T04:01:42.383Z,25.33
2017-12-31T04:04:10.255Z,8.63
2017-12-31T04:06:38.311Z,2.53
2017-12-31T04:09:06.186Z,3.00
2017-12-31T04:11:34.242Z,5.03
2017-12-31T04:14:02.129Z,1.30
2017-12-31T04:16:30.016Z,2.10
2017-12-31T04:18:58.610Z,5.13
2017-12-31T04:21:27.396Z,2.23
2017-12-31T04:23:55.951Z,2.87
2017-12-31T04:26:23.919Z,3.03
2017-12-31T04:28:51.780Z,2.83
2017-12-31T04:31:19.890Z,2.57
2017-12-31T04:33:48.527Z,2.43
2017-12-31T04:36:16.630Z,6.63
2017-12-31T04:38:45.483Z,1.67
2017-12-31T04:41:14.280Z,7.57
2017-12-31T04:43:42.273Z,1.73
2017-12-31T04:46:10.944Z,2.70
2017-12-31T04:48:38.915Z,2.20
2017-12-31T04:51:08.337Z,4.47
2017-12-31T04:53:36.985Z,1.03
2017-12-31T04:56:04.910Z,1.20
2017-12-31T04:58:33.511Z,2.80
2017-12-31T05:01:01.423Z,1.67
2017-12-31T05:03:29.480Z,1.90
2017-12-31T05:05:57.252Z,1.70
2017-12-31T05:08:25.120Z,3.50
2017-12-31T05:10:53.001Z,1.43
2017-12-31T05:13:20.938Z,2.20
2017-12-31T05:15:48.841Z,3.03
2017-12-31T05:18:17.127Z,0.93
2017-12-31T05:20:45.814Z,2.53
2017-12-31T05:23:14.553Z,1.53
2017-12-31T05:25:42.424Z,1.67
2017-12-31T05:28:10.322Z,3.20
2017-12-31T05:30:38.181Z,1.73
2017-12-31T05:33:06.771Z,1.50
2017-12-31T05:35:34.637Z,3.47
2017-12-31T05:38:02.420Z,3.67
2017-12-31T05:40:31.067Z,3.73
2017-12-31T05:42:58.828Z,2.50
2017-12-31T05:45:26.713Z,5.63
2017-12-31T05:47:54.571Z,2.10
2017-12-31T05:50:22.521Z,0.90
2017-12-31T05:52:50.307Z,3.93
2017-12-31T05:55:18.167Z,4.43
2017-12-31T05:57:46.233Z,2.53
2017-12-31T06:00:14.319Z,1.30
2017-12-31T06:02:42.295Z,2.33
2017-12-31T06:05:10.141Z,1.37
2017-12-31T06:07:38.128Z,1.57
2017-12-31T06:10:06.109Z,1.67
2017-12-31T06:12:34.850Z,5.80
2017-12-31T06:15:02.824Z,1.30
2017-12-31T06:17:30.763Z,1.90
2017-12-31T06:19:58.795Z,2.10
2017-12-31T06:22:26.638Z,2.03
2017-12-31T06:24:54.620Z,4.03
2017-12-31T06:27:22.603Z,4.30
2017-12-31T06:29:50.435Z,2.90
2017-12-31T06:32:18.296Z,2.53
2017-12-31T06:34:46.268Z,3.83
2017-12-31T06:37:14.232Z,3.67
2017-12-31T06:39:42.326Z,4.27
2017-12-31T06:42:10.375Z,5.93
2017-12-31T06:44:38.247Z,3.43
2017-12-31T06:47:06.020Z,4.57
2017-12-31T06:49:34.798Z,3.20
2017-12-31T06:52:02.685Z,4.30
2017-12-31T06:54:30.576Z,1.83
2017-12-31T06:56:59.147Z,5.37
2017-12-31T06:59:27.079Z,6.90
2017-12-31T07:01:54.945Z,2.10
2017-12-31T07:04:22.879Z,2.70
2017-12-31T07:06:50.689Z,3.50
2017-12-31T07:09:18.642Z,2.03
2017-12-31T07:11:46.614Z,1.93
2017-12-31T07:14:14.501Z,1.73
2017-12-31T07:16:42.322Z,2.50
2017-12-31T07:19:10.143Z,1.73
2017-12-31T07:21:38.838Z,5.00
2017-12-31T07:24:06.725Z,6.30
2017-12-31T07:26:35.471Z,3.20
2017-12-31T07:29:03.357Z,5.17
2017-12-31T07:31:31.186Z,3.67
2017-12-31T07:33:59.275Z,4.73
2017-12-31T07:36:27.224Z,4.67
2017-12-31T07:38:55.228Z,3.50
2017-12-31T07:41:23.366Z,3.10
2017-12-31T07:43:51.358Z,5.30
2017-12-31T07:46:19.454Z,4.30
2017-12-31T07:48:48.119Z,6.00
2017-12-31T07:51:16.779Z,2.07
2017-12-31T07:53:44.537Z,1.70
2017-12-31T07:56:12.433Z,3.73
2017-12-31T07:58:41.217Z,4.10
2017-12-31T08:01:09.167Z,3.83
2017-12-31T08:03:37.339Z,3.90
2017-12-31T08:06:05.336Z,8.90
2017-12-31T08:08:33.380Z,4.43
2017-12-31T08:11:01.346Z,3.53
2017-12-31T08:13:29.319Z,2.23
2017-12-31T08:15:57.285Z,7.33
2017-12-31T08:18:25.282Z,5.10
2017-12-31T08:20:53.145Z,6.40
2017-12-31T08:23:21.128Z,4.03
2017-12-31T08:25:51.735Z,4.77
2017-12-31T08:28:19.713Z,4.90
2017-12-31T08:30:47.922Z,3.03
2017-12-31T08:33:16.659Z,3.50
2017-12-31T08:35:44.637Z,14.17
2017-12-31T08:38:13.305Z,2.10
2017-12-31T08:40:41.374Z,6.23
2017-12-31T08:43:09.272Z,2.23
2017-12-31T08:45:37.392Z,1.90
2017-12-31T08:48:07.595Z,2.47
2017-12-31T08:50:37.016Z,4.23
2017-12-31T08:53:06.271Z,1.40
2017-12-31T08:55:36.241Z,1.53
2017-12-31T08:58:12.727Z,1.67
2017-12-31T09:00:42.035Z,3.90
2017-12-31T09:03:13.824Z,5.33
2017-12-31T09:05:44.366Z,1.60
2017-12-31T09:08:14.581Z,1.67
2017-12-31T09:10:44.999Z,1.13
2017-12-31T09:13:14.361Z,1.00
2017-12-31T09:15:43.551Z,1.67
2017-12-31T09:18:12.954Z,1.40
2017-12-31T09:20:41.537Z,1.20
2017-12-31T09:23:10.539Z,1.70
2017-12-31T09:25:39.148Z,2.73
2017-12-31T09:28:07.611Z,1.57
2017-12-31T09:30:36.415Z,2.60
2017-12-31T09:33:07.078Z,12.00
2017-12-31T09:35:35.732Z,3.03
2017-12-31T09:38:04.368Z,1.80
2017-12-31T09:40:32.980Z,3.43
2017-12-31T09:43:01.729Z,5.20
2017-12-31T09:45:29.592Z,7.00
2017-12-31T09:47:57.412Z,2.67
2017-12-31T09:50:25.396Z,5.50
2017-12-31T09:52:53.240Z,8.07
2017-12-31T09:55:21.701Z,7.73
2017-12-31T09:57:49.692Z,5.70
2017-12-31T10:00:18.067Z,2.67
2017-12-31T10:02:46.946Z,19.30
2017-12-31T10:05:14.919Z,7.73
2017-12-31T10:07:42.833Z,2.07
2017-12-31T10:10:11.814Z,3.53
2017-12-31T10:12:39.779Z,2.93
2017-12-31T10:15:07.690Z,3.67
2017-12-31T10:17:35.685Z,4.00
2017-12-31T10:20:03.682Z,2.40
2017-12-31T10:22:31.632Z,3.07
2017-12-31T10:24:59.734Z,1.67
2017-12-31T10:27:27.696Z,4.33
2017-12-31T10:29:55.634Z,2.50
2017-12-31T10:32:23.558Z,4.10
2017-12-31T10:34:53.324Z,12.23
2017-12-31T10:37:21.217Z,3.23
2017-12-31T10:39:49.774Z,1.77
2017-12-31T10:42:17.647Z,2.80
2017-12-31T10:44:45.595Z,2.13
2017-12-31T10:47:13.378Z,1.60
2017-12-31T10:49:41.367Z,1.80
2017-12-31T10:52:09.227Z,2.07
2017-12-31T10:54:37.077Z,2.87
2017-12-31T10:57:05.168Z,1.73
2017-12-31T10:59:33.308Z,1.90
2017-12-31T11:02:01.203Z,4.73
2017-12-31T11:04:29.165Z,6.53
2017-12-31T11:06:57.318Z,2.30
2017-12-31T11:09:25.288Z,8.93
2017-12-31T11:11:53.401Z,3.77
2017-12-31T11:14:22.967Z,3.83
2017-12-31T11:16:50.764Z,4.63
2017-12-31T11:19:18.718Z,6.57
2017-12-31T11:21:46.577Z,5.07
2017-12-31T11:24:14.371Z,1.30
2017-12-31T11:26:43.032Z,1.40
2017-12-31T11:29:10.896Z,4.37
2017-12-31T11:31:39.053Z,1.43
2017-12-31T11:34:06.926Z,1.97
2017-12-31T11:36:34.934Z,1.30
2017-12-31T11:39:03.881Z,1.63
2017-12-31T11:41:31.746Z,2.37
2017-12-31T11:43:59.617Z,3.40
2017-12-31T11:46:27.524Z,5.50
2017-12-31T11:48:58.176Z,2.97
2017-12-31T11:51:30.112Z,2.40
2017-12-31T11:53:59.470Z,1.50
2017-12-31T11:56:30.903Z,1.63
2017-12-31T11:59:00.835Z,1.20
2017-12-31T12:01:31.428Z,1.17
2017-12-31T12:04:01.167Z,1.30
2017-12-31T12:06:30.971Z,3.90
2017-12-31T12:09:01.365Z,2.00
2017-12-31T12:11:31.824Z,1.10
2017-12-31T12:14:03.305Z,1.80
2017-12-31T12:16:34.497Z,1.50
2017-12-31T12:19:03.945Z,1.30
2017-12-31T12:21:35.647Z,1.27
2017-12-31T12:24:05.092Z,1.30
2017-12-31T12:26:36.830Z,2.13
2017-12-31T12:29:06.019Z,2.00
2017-12-31T12:31:35.967Z,2.53
2017-12-31T12:34:06.310Z,1.47
2017-12-31T12:36:35.783Z,2.50
2017-12-31T12:39:09.941Z,1.10
2017-12-31T12:44:23.804Z,1.83
2017-12-31T12:46:53.180Z,1.43
2017-12-31T12:49:28.865Z,2.07
2017-12-31T12:51:59.491Z,1.20
2017-12-31T12:54:31.551Z,1.60
2017-12-31T12:57:02.497Z,1.97
2017-12-31T12:59:38.653Z,2.33
2017-12-31T13:02:10.391Z,2.00
2017-12-31T13:04:42.426Z,1.23
2017-12-31T13:07:14.797Z,1.23
2017-12-31T13:09:44.817Z,1.87
2017-12-31T13:12:15.157Z,1.77
2017-12-31T13:14:44.948Z,1.60
2017-12-31T13:17:15.665Z,2.10
2017-12-31T13:19:46.851Z,1.60
2017-12-31T13:22:21.823Z,1.70
2017-12-31T13:24:51.999Z,1.30
2017-12-31T13:27:22.268Z,1.77
2017-12-31T13:29:51.781Z,2.33
2017-12-31T13:32:21.109Z,2.60
2017-12-31T13:34:51.718Z,1.53
2017-12-31T13:37:22.633Z,2.30
2017-12-31T13:39:52.496Z,1.30
2017-12-31T13:42:22.050Z,2.93
2017-12-31T13:44:51.756Z,2.93
2017-12-31T13:47:22.404Z,1.73
2017-12-31T13:49:52.707Z,2.63
2017-12-31T13:52:23.609Z,3.00
2017-12-31T13:54:52.579Z,2.90
2017-12-31T13:57:22.236Z,1.53
2017-12-31T13:59:52.230Z,3.00
2017-12-31T14:02:22.314Z,1.80
2017-12-31T14:04:52.638Z,3.50
2017-12-31T14:07:23.176Z,2.10
2017-12-31T14:09:54.458Z,20.00
2017-12-31T14:12:25.668Z,3.47
2017-12-31T14:14:56.059Z,4.30
2017-12-31T14:17:26.074Z,16.97
2017-12-31T14:19:57.705Z,38.90
2017-12-31T14:22:28.100Z,599.03
2017-12-31T14:25:00.635Z,97.47
2017-12-31T14:27:45.120Z,772.53
2017-12-31T14:30:14.510Z,36.97
2017-12-31T14:32:43.427Z,4.17
2017-12-31T14:35:14.244Z,4.53
2017-12-31T14:37:44.178Z,5.47
2017-12-31T14:40:15.643Z,6.30
2017-12-31T14:42:44.612Z,24.40
2017-12-31T14:45:17.036Z,486.23
2017-12-31T14:47:47.655Z,53.37
2017-12-31T14:50:17.548Z,37.23
2017-12-31T14:52:46.836Z,4.47
2017-12-31T14:55:16.948Z,14.17
2017-12-31T14:57:47.193Z,15.20
2017-12-31T15:00:16.525Z,11.43
2017-12-31T15:02:46.162Z,15.70
2017-12-31T15:05:16.759Z,7.60
2017-12-31T15:07:45.901Z,8.17
2017-12-31T15:10:15.921Z,6.83
2017-12-31T15:12:45.599Z,13.50
2017-12-31T15:15:16.203Z,24.70
2017-12-31T15:17:46.789Z,15.47
2017-12-31T15:20:17.392Z,39.93
2017-12-31T15:25:42.943Z,12.10
2017-12-31T15:28:11.370Z,7.97
2017-12-31T15:30:39.440Z,12.13
2017-12-31T15:33:09.094Z,10.93
2017-12-31T15:35:38.989Z,9.13
2017-12-31T15:38:10.894Z,13.33
2017-12-31T15:40:40.300Z,17.47
2017-12-31T15:43:13.169Z,12.63
2017-12-31T15:45:45.360Z,53.57
2017-12-31T15:48:15.719Z,500.57
2017-12-31T15:50:43.987Z,28.77
2017-12-31T15:53:12.999Z,32.27
2017-12-31T15:55:43.369Z,33.97
2017-12-31T15:58:11.544Z,27.10
2017-12-31T16:00:40.191Z,31.83
2017-12-31T16:03:08.816Z,25.53
2017-12-31T16:05:36.925Z,19.90
2017-12-31T16:08:05.358Z,32.90
2017-12-31T16:10:33.394Z,14.50
2017-12-31T16:13:01.535Z,13.20
2017-12-31T16:15:30.271Z,18.87
2017-12-31T16:17:59.513Z,16.47
2017-12-31T16:20:28.423Z,13.97
2017-12-31T16:22:56.486Z,11.60
2017-12-31T16:25:25.914Z,12.03
2017-12-31T16:27:54.296Z,10.27
2017-12-31T16:30:22.385Z,11.13
2017-12-31T16:32:52.078Z,17.70
2017-12-31T16:35:21.057Z,18.70
2017-12-31T16:37:49.231Z,19.43
2017-12-31T16:40:18.201Z,31.70
2017-12-31T16:42:47.229Z,22.63
2017-12-31T16:45:15.164Z,16.70
2017-12-31T16:47:46.619Z,13.33
2017-12-31T16:50:15.002Z,19.57
2017-12-31T16:52:43.382Z,39.17
2017-12-31T16:55:12.103Z,47.23
2017-12-31T16:57:41.601Z,33.80
2017-12-31T17:00:10.150Z,27.50
2017-12-31T17:02:38.583Z,14.37
2017-12-31T17:05:10.875Z,16.77
2017-12-31T17:07:38.918Z,13.40
2017-12-31T17:10:08.746Z,14.87
2017-12-31T17:12:36.932Z,13.13
2017-12-31T17:15:05.083Z,15.80
2017-12-31T17:17:37.368Z,12.77
2017-12-31T17:20:05.641Z,21.43
2017-12-31T17:22:34.190Z,33.93
2017-12-31T17:25:03.578Z,14.63
2017-12-31T17:27:32.650Z,26.30
2017-12-31T17:30:00.724Z,14.67
2017-12-31T17:32:28.587Z,8.93
2017-12-31T17:34:56.562Z,12.03
2017-12-31T17:37:25.035Z,12.00
2017-12-31T17:39:53.301Z,100.47
2017-12-31T17:42:21.484Z,39.30
2017-12-31T17:44:49.762Z,53.93
2017-12-31T17:47:17.624Z,24.73
2017-12-31T17:49:45.799Z,12.37
2017-12-31T17:52:13.711Z,14.67
2017-12-31T17:54:42.558Z,50.10
2017-12-31T17:57:11.376Z,36.93
2017-12-31T17:59:39.467Z,31.03
2017-12-31T18:02:08.475Z,11.90
2017-12-31T18:04:37.339Z,55.17
2017-12-31T18:07:08.658Z,22.33
2017-12-31T18:09:37.216Z,13.50
2017-12-31T18:12:05.057Z,11.93
2017-12-31T18:14:37.917Z,25.40
2017-12-31T18:17:06.715Z,16.37
2017-12-31T18:19:35.687Z,16.50
2017-12-31T18:22:04.681Z,56.00
2017-12-31T18:24:33.138Z,36.83
2017-12-31T18:27:02.945Z,58.77
2017-12-31T18:29:33.477Z,146.83
2017-12-31T18:32:01.876Z,187.47
2017-12-31T18:34:29.845Z,31.43
2017-12-31T18:36:59.994Z,44.53
2017-12-31T18:39:29.144Z,53.17
2017-12-31T18:41:57.413Z,40.10
2017-12-31T18:44:26.524Z,54.57
2017-12-31T18:46:55.781Z,61.47
2017-12-31T18:49:27.322Z,86.83
2017-12-31T18:51:56.049Z,67.83
2017-12-31T18:54:24.385Z,87.00
2017-12-31T18:56:54.248Z,74.83
2017-12-31T18:59:23.523Z,122.40
2017-12-31T19:01:52.406Z,148.00
2017-12-31T19:04:20.807Z,71.90
2017-12-31T19:06:48.923Z,149.70
2017-12-31T19:09:17.913Z,327.50
2017-12-31T19:11:46.384Z,154.60
2017-12-31T19:14:16.742Z,238.13
2017-12-31T19:16:45.212Z,243.53
2017-12-31T19:19:15.381Z,166.40
2017-12-31T19:21:43.896Z,44.23
2017-12-31T19:24:13.744Z,116.33
2017-12-31T19:26:42.096Z,109.07
2017-12-31T19:29:10.950Z,181.43
2017-12-31T19:31:39.134Z,152.87
2017-12-31T19:34:07.086Z,147.70
2017-12-31T19:36:35.359Z,232.30
2017-12-31T19:39:03.202Z,102.97
2017-12-31T19:41:31.274Z,155.83
2017-12-31T19:43:59.388Z,121.57
2017-12-31T19:46:27.629Z,152.90
2017-12-31T19:48:56.022Z,87.57
2017-12-31T19:51:24.116Z,56.17
2017-12-31T19:53:52.499Z,76.73
2017-12-31T19:56:25.170Z,31.33
2017-12-31T19:58:53.427Z,23.10
2017-12-31T20:01:21.854Z,55.50
2017-12-31T20:03:50.911Z,125.53
2017-12-31T20:06:18.878Z,56.93
2017-12-31T20:08:47.372Z,75.30
2017-12-31T20:11:15.872Z,28.57
2017-12-31T20:13:45.437Z,29.70
2017-12-31T20:16:13.439Z,83.10
2017-12-31T20:18:41.432Z,131.47
2017-12-31T20:21:10.163Z,89.20
2017-12-31T20:23:38.052Z,202.03
2017-12-31T20:26:06.130Z,87.43
2017-12-31T20:28:34.175Z,73.13
2017-12-31T20:31:02.051Z,35.67
2017-12-31T20:33:29.940Z,96.60
2017-12-31T20:35:58.843Z,47.50
2017-12-31T20:38:27.583Z,61.63
2017-12-31T20:40:55.775Z,50.57
2017-12-31T20:43:24.438Z,47.50
2017-12-31T20:45:53.702Z,61.10
2017-12-31T20:48:21.945Z,66.17
2017-12-31T20:50:49.918Z,49.03
2017-12-31T20:53:20.474Z,81.03
2017-12-31T20:55:50.216Z,85.80
2017-12-31T20:58:19.156Z,52.13
2017-12-31T21:00:49.541Z,47.33
2017-12-31T21:03:18.685Z,65.30
2017-12-31T21:05:48.770Z,43.53
2017-12-31T21:08:19.639Z,71.87
2017-12-31T21:10:51.736Z,42.67
2017-12-31T21:13:21.509Z,57.37
2017-12-31T21:15:50.356Z,64.80
2017-12-31T21:18:19.205Z,71.27
2017-12-31T21:20:48.444Z,47.57
2017-12-31T21:23:18.529Z,43.07
2017-12-31T21:25:48.767Z,45.30
2017-12-31T21:28:17.488Z,208.73
2017-12-31T21:30:47.126Z,200.77
2017-12-31T21:33:17.419Z,65.27
2017-12-31T21:35:46.572Z,54.60
2017-12-31T21:38:14.597Z,52.03
2017-12-31T21:40:44.234Z,54.37
2017-12-31T21:43:13.736Z,64.63
2017-12-31T21:45:42.266Z,67.93
2017-12-31T21:48:11.362Z,74.90
2017-12-31T21:50:40.758Z,82.63
2017-12-31T21:53:09.372Z,60.30
2017-12-31T21:55:39.453Z,72.30
2017-12-31T21:58:08.973Z,71.90
2017-12-31T22:00:38.355Z,92.40
2017-12-31T22:03:06.523Z,95.00
2017-12-31T22:05:35.084Z,82.17
2017-12-31T22:08:03.762Z,87.97
2017-12-31T22:10:33.798Z,119.63
2017-12-31T22:13:02.834Z,102.73
2017-12-31T22:15:31.317Z,163.10
2017-12-31T22:17:59.585Z,87.73
2017-12-31T22:20:29.327Z,99.60
2017-12-31T22:22:58.721Z,108.07
2017-12-31T22:25:26.919Z,106.47
2017-12-31T22:27:56.068Z,77.00
2017-12-31T22:30:25.991Z,45.33
2017-12-31T22:32:56.434Z,291.13
2017-12-31T22:35:25.775Z,257.40
2017-12-31T22:37:54.532Z,326.03
2017-12-31T22:40:24.681Z,283.57
2017-12-31T22:42:53.449Z,520.90
2017-12-31T22:45:22.868Z,122.67
2017-12-31T22:47:51.105Z,97.13
2017-12-31T22:50:19.074Z,512.53
2017-12-31T22:52:46.955Z,167.03
2017-12-31T22:55:15.949Z,277.00
2017-12-31T22:57:44.796Z,232.20
2017-12-31T23:00:12.864Z,501.00
2017-12-31T23:02:40.832Z,1011.37
2017-12-31T23:05:09.029Z,1190.53
2017-12-31T23:07:37.183Z,820.00
2017-12-31T23:10:05.720Z,1034.53
2017-12-31T23:12:35.306Z,691.03
2017-12-31T23:15:04.316Z,570.60
2017-12-31T23:17:35.969Z,516.00
2017-12-31T23:20:06.134Z,524.50
2017-12-31T23:22:35.235Z,521.03
2017-12-31T23:25:04.996Z,510.13
2017-12-31T23:27:34.847Z,474.40
2017-12-31T23:30:04.014Z,525.07
2017-12-31T23:32:33.108Z,500.90
2017-12-31T23:35:05.078Z,314.70
2017-12-31T23:37:34.037Z,344.30
2017-12-31T23:40:03.689Z,319.63
2017-12-31T23:42:31.890Z,281.57
2017-12-31T23:45:01.020Z,363.07
2017-12-31T23:47:31.634Z,282.97
2017-12-31T23:50:02.211Z,324.40
2017-12-31T23:52:34.191Z,316.17
2017-12-31T23:55:02.899Z,286.10
2017-12-31T23:57:33.459Z,302.23
